createdAt,value
2018-09-25T00:01:54.226Z,73.63
2018-09-25T00:04:27.708Z,74.28
2018-09-25T00:07:01.168Z,74.60
2018-09-25T00:09:34.636Z,74.71
2018-09-25T00:12:08.110Z,74.30
2018-09-25T00:14:41.591Z,74.31
2018-09-25T00:17:15.116Z,74.22
2018-09-25T00:19:48.571Z,74.35
2018-09-25T00:22:22.103Z,73.63
2018-09-25T00:24:55.558Z,73.82
2018-09-25T00:27:29.108Z,73.89
2018-09-25T00:30:02.623Z,73.75
2018-09-25T00:32:36.111Z,74.04
2018-09-25T00:35:09.655Z,74.24
2018-09-25T00:37:43.142Z,74.15
2018-09-25T00:40:16.637Z,74.30
2018-09-25T00:42:50.093Z,74.49
2018-09-25T00:45:23.559Z,74.29
2018-09-25T00:47:57.048Z,74.47
2018-09-25T00:50:30.604Z,74.63
2018-09-25T00:53:04.149Z,75.45
2018-09-25T00:55:37.619Z,75.57
2018-09-25T00:58:11.166Z,75.26
2018-09-25T01:00:44.649Z,75.07
2018-09-25T01:03:18.230Z,75.02
2018-09-25T01:05:51.651Z,74.72
2018-09-25T01:08:25.092Z,74.61
2018-09-25T01:10:58.591Z,75.31
2018-09-25T01:13:32.056Z,75.50
2018-09-25T01:16:05.508Z,75.54
2018-09-25T01:18:39.036Z,75.52
2018-09-25T01:21:12.814Z,75.69
2018-09-25T01:23:46.416Z,75.52
2018-09-25T01:26:20.056Z,75.30
2018-09-25T01:28:53.606Z,75.07
2018-09-25T01:31:27.132Z,75.13
2018-09-25T01:34:00.680Z,75.17
2018-09-25T01:36:34.171Z,74.93
2018-09-25T01:39:07.644Z,74.81
2018-09-25T01:41:41.120Z,74.98
2018-09-25T01:44:14.731Z,74.88
2018-09-25T01:46:48.300Z,74.91
2018-09-25T01:49:21.859Z,74.81
2018-09-25T01:51:55.404Z,74.76
2018-09-25T01:54:28.944Z,75.18
2018-09-25T01:57:02.419Z,75.37
2018-09-25T01:59:35.883Z,75.11
2018-09-25T02:02:09.422Z,75.24
2018-09-25T02:04:42.863Z,74.83
2018-09-25T02:07:16.386Z,74.85
2018-09-25T02:09:49.820Z,74.93
2018-09-25T02:12:23.300Z,74.74
2018-09-25T02:14:56.833Z,74.84
2018-09-25T02:17:30.252Z,75.07
2018-09-25T02:20:03.743Z,75.05
2018-09-25T02:22:37.243Z,75.05
2018-09-25T02:25:10.660Z,75.29
2018-09-25T02:27:44.184Z,75.22
2018-09-25T02:30:17.668Z,75.25
2018-09-25T02:32:51.248Z,75.32
2018-09-25T02:35:24.803Z,75.24
2018-09-25T02:37:58.423Z,74.62
2018-09-25T02:40:31.831Z,74.74
2018-09-25T02:43:05.379Z,74.71
2018-09-25T02:45:38.991Z,75.06
2018-09-25T02:48:12.555Z,75.10
2018-09-25T02:50:46.004Z,75.17
2018-09-25T02:53:19.525Z,75.19
2018-09-25T02:55:53.072Z,75.25
2018-09-25T02:58:26.560Z,75.42
2018-09-25T03:00:59.978Z,75.24
2018-09-25T03:03:33.524Z,75.34
2018-09-25T03:06:07.211Z,75.46
2018-09-25T03:08:40.607Z,75.59
2018-09-25T03:11:14.015Z,75.90
2018-09-25T03:13:47.562Z,75.88
2018-09-25T03:16:21.084Z,75.85
2018-09-25T03:18:54.547Z,76.09
2018-09-25T03:21:27.979Z,76.03
2018-09-25T03:24:01.653Z,76.18
2018-09-25T03:26:35.015Z,76.33
2018-09-25T03:29:08.534Z,77.11
2018-09-25T03:31:42.010Z,77.38
2018-09-25T03:34:15.577Z,76.86
2018-09-25T03:36:49.115Z,76.81
2018-09-25T03:39:22.688Z,77.08
2018-09-25T03:41:56.251Z,77.00
2018-09-25T03:44:29.839Z,76.99
2018-09-25T03:47:03.288Z,76.56
2018-09-25T03:49:36.767Z,76.10
2018-09-25T03:52:10.217Z,76.69
2018-09-25T03:54:43.723Z,76.46
2018-09-25T03:57:17.222Z,76.55
2018-09-25T03:59:50.706Z,76.81
2018-09-25T04:02:24.140Z,76.96
2018-09-25T04:04:57.711Z,77.03
2018-09-25T04:07:31.225Z,76.88
2018-09-25T04:10:04.727Z,76.80
2018-09-25T04:12:38.167Z,76.77
2018-09-25T04:15:11.728Z,76.33
2018-09-25T04:17:45.199Z,76.56
2018-09-25T04:20:18.711Z,76.73
2018-09-25T04:22:52.163Z,76.61
2018-09-25T04:25:25.729Z,76.76
2018-09-25T04:27:59.276Z,76.75
2018-09-25T04:30:32.707Z,76.90
2018-09-25T04:33:06.156Z,76.78
2018-09-25T04:35:39.565Z,77.20
2018-09-25T04:38:13.129Z,76.97
2018-09-25T04:40:46.605Z,76.96
2018-09-25T04:43:20.127Z,76.85
2018-09-25T04:45:53.711Z,76.94
2018-09-25T04:48:27.145Z,77.04
2018-09-25T04:51:00.473Z,76.99
2018-09-25T04:53:33.975Z,76.21
2018-09-25T04:56:07.608Z,76.04
2018-09-25T04:58:41.140Z,76.82
2018-09-25T05:01:14.824Z,77.40
2018-09-25T05:03:48.177Z,77.48
2018-09-25T05:06:21.739Z,77.70
2018-09-25T05:08:55.157Z,78.48
2018-09-25T05:11:28.648Z,78.76
2018-09-25T05:14:02.144Z,78.10
2018-09-25T05:16:35.608Z,77.82
2018-09-25T05:19:09.191Z,77.86
2018-09-25T05:21:42.596Z,77.53
2018-09-25T05:24:16.025Z,77.25
2018-09-25T05:26:49.476Z,77.13
2018-09-25T05:29:22.971Z,76.57
2018-09-25T05:31:56.404Z,75.64
2018-09-25T05:34:29.889Z,75.45
2018-09-25T05:37:03.377Z,75.13
2018-09-25T05:39:36.871Z,75.05
2018-09-25T05:42:10.375Z,75.05
2018-09-25T05:44:43.962Z,75.25
2018-09-25T05:47:17.539Z,75.17
2018-09-25T05:49:51.089Z,75.54
2018-09-25T05:52:24.641Z,75.48
2018-09-25T05:54:58.122Z,75.64
2018-09-25T05:57:31.675Z,75.38
2018-09-25T06:00:05.252Z,75.85
2018-09-25T06:02:38.766Z,76.09
2018-09-25T06:05:12.674Z,76.21
2018-09-25T06:07:46.057Z,76.31
2018-09-25T06:10:19.572Z,76.54
2018-09-25T06:12:53.014Z,76.39
2018-09-25T06:15:26.464Z,76.52
2018-09-25T06:17:59.881Z,76.38
2018-09-25T06:20:33.368Z,76.67
2018-09-25T06:23:07.028Z,76.37
2018-09-25T06:25:40.451Z,76.40
2018-09-25T06:28:13.879Z,76.30
2018-09-25T06:30:47.448Z,76.56
2018-09-25T06:33:20.924Z,76.43
2018-09-25T06:35:54.483Z,76.62
2018-09-25T06:38:27.960Z,76.72
2018-09-25T06:41:01.474Z,76.90
2018-09-25T06:43:34.917Z,77.12
2018-09-25T06:46:08.400Z,77.01
2018-09-25T06:48:41.846Z,77.13
2018-09-25T06:51:15.347Z,77.22
2018-09-25T06:53:48.896Z,77.25
2018-09-25T06:56:22.397Z,77.58
2018-09-25T06:58:55.846Z,77.67
2018-09-25T07:01:29.321Z,77.67
2018-09-25T07:04:02.765Z,77.53
2018-09-25T07:06:36.351Z,77.42
2018-09-25T07:09:11.993Z,77.44
2018-09-25T07:11:45.442Z,77.49
2018-09-25T07:14:18.928Z,77.29
2018-09-25T07:16:52.395Z,77.53
2018-09-25T07:19:25.930Z,77.47
2018-09-25T07:21:59.394Z,77.27
2018-09-25T07:24:32.970Z,77.23
2018-09-25T07:27:06.376Z,77.15
2018-09-25T07:29:39.827Z,77.27
2018-09-25T07:32:13.276Z,76.68
2018-09-25T07:34:46.787Z,76.80
2018-09-25T07:37:20.241Z,76.72
2018-09-25T07:39:53.725Z,76.36
2018-09-25T07:42:27.254Z,76.29
2018-09-25T07:45:00.799Z,76.04
2018-09-25T07:47:40.895Z,76.18
2018-09-25T07:50:14.303Z,75.97
2018-09-25T07:55:26.385Z,75.92
2018-09-25T07:57:59.791Z,75.55
2018-09-25T08:00:33.300Z,75.17
2018-09-25T08:03:06.802Z,75.18
2018-09-25T08:05:40.336Z,75.67
2018-09-25T08:08:13.780Z,75.29
2018-09-25T08:10:47.338Z,75.21
2018-09-25T08:13:20.794Z,75.19
2018-09-25T08:15:54.228Z,74.93
2018-09-25T08:18:27.686Z,74.98
2018-09-25T08:21:01.240Z,74.51
2018-09-25T08:23:34.771Z,74.10
2018-09-25T08:26:08.204Z,73.69
2018-09-25T08:28:41.695Z,73.38
2018-09-25T08:31:15.176Z,72.98
2018-09-25T08:33:48.736Z,71.82
2018-09-25T08:36:22.259Z,70.97
2018-09-25T08:38:55.880Z,70.80
2018-09-25T08:41:29.385Z,70.11
2018-09-25T08:44:02.876Z,69.16
2018-09-25T08:46:36.428Z,69.97
2018-09-25T08:49:09.875Z,69.30
2018-09-25T08:51:43.315Z,68.85
2018-09-25T08:54:16.756Z,67.66
2018-09-25T08:56:50.175Z,66.65
2018-09-25T08:59:23.650Z,64.64
2018-09-25T09:01:57.107Z,64.75
2018-09-25T09:04:30.666Z,64.24
2018-09-25T09:07:04.175Z,63.01
2018-09-25T09:09:37.636Z,63.07
2018-09-25T09:12:11.083Z,62.85
2018-09-25T09:14:44.565Z,60.61
2018-09-25T09:17:18.076Z,60.50
2018-09-25T09:19:51.652Z,60.87
2018-09-25T09:22:25.176Z,58.18
2018-09-25T09:24:58.620Z,56.19
2018-09-25T09:27:32.141Z,55.72
2018-09-25T09:30:05.734Z,54.35
2018-09-25T09:32:39.351Z,53.61
2018-09-25T09:35:12.879Z,53.42
2018-09-25T09:37:46.187Z,52.60
2018-09-25T09:40:19.682Z,49.48
2018-09-25T09:42:53.164Z,49.42
2018-09-25T09:45:26.695Z,47.79
2018-09-25T09:48:00.253Z,47.92
2018-09-25T09:50:33.782Z,48.40
2018-09-25T09:53:07.164Z,47.33
2018-09-25T09:55:40.627Z,45.27
2018-09-25T09:58:14.053Z,45.29
2018-09-25T10:00:47.578Z,44.86
2018-09-25T10:03:21.142Z,44.48
2018-09-25T10:05:54.576Z,44.06
2018-09-25T10:08:28.086Z,43.84
2018-09-25T10:11:01.379Z,41.69
2018-09-25T10:13:34.805Z,40.71
2018-09-25T10:16:08.311Z,40.29
2018-09-25T10:18:41.798Z,40.46
2018-09-25T10:21:15.206Z,39.00
2018-09-25T10:23:48.681Z,40.48
2018-09-25T10:26:22.220Z,39.63
2018-09-25T10:28:55.743Z,39.54
2018-09-25T10:31:29.298Z,36.82
2018-09-25T10:34:02.826Z,37.22
2018-09-25T10:36:36.252Z,36.75
2018-09-25T10:39:11.707Z,36.48
2018-09-25T10:41:45.268Z,34.76
2018-09-25T10:44:18.694Z,37.81
2018-09-25T10:46:52.155Z,36.53
2018-09-25T10:49:25.660Z,37.31
2018-09-25T10:51:59.146Z,36.33
2018-09-25T10:54:32.583Z,35.89
2018-09-25T10:57:06.168Z,36.11
2018-09-25T10:59:39.707Z,35.38
2018-09-25T11:02:13.202Z,36.76
2018-09-25T11:04:46.658Z,36.09
2018-09-25T11:07:20.083Z,35.72
2018-09-25T11:09:53.627Z,36.46
2018-09-25T11:12:27.178Z,38.42
2018-09-25T11:15:00.744Z,37.90
2018-09-25T11:17:34.262Z,39.54
2018-09-25T11:20:07.767Z,40.84
2018-09-25T11:22:41.256Z,41.70
2018-09-25T11:25:14.655Z,41.88
2018-09-25T11:27:48.074Z,41.92
2018-09-25T11:30:21.569Z,42.40
2018-09-25T11:32:55.080Z,42.78
2018-09-25T11:35:28.732Z,41.39
2018-09-25T11:38:02.171Z,40.45
2018-09-25T11:40:35.701Z,40.27
2018-09-25T11:43:09.194Z,40.65
2018-09-25T11:45:42.633Z,38.74
2018-09-25T11:48:16.094Z,38.48
2018-09-25T11:50:49.511Z,36.26
2018-09-25T11:53:22.935Z,36.40
2018-09-25T11:55:56.492Z,35.39
2018-09-25T11:58:29.995Z,33.84
2018-09-25T12:01:03.435Z,33.84
2018-09-25T12:03:36.963Z,35.53
2018-09-25T12:06:10.446Z,34.47
2018-09-25T12:08:43.935Z,33.85
2018-09-25T12:11:17.418Z,33.79
2018-09-25T12:13:51.008Z,34.46
2018-09-25T12:16:24.571Z,33.13
2018-09-25T12:18:58.024Z,35.13
2018-09-25T12:21:31.492Z,36.37
2018-09-25T12:24:04.888Z,36.14
2018-09-25T12:26:38.346Z,35.07
2018-09-25T12:29:11.773Z,35.69
2018-09-25T12:31:45.319Z,35.13
2018-09-25T12:34:18.799Z,35.87
2018-09-25T12:36:52.351Z,36.24
2018-09-25T12:39:25.754Z,36.24
2018-09-25T12:41:59.202Z,38.69
2018-09-25T12:44:32.741Z,39.97
2018-09-25T12:47:06.320Z,42.10
2018-09-25T12:49:39.885Z,41.91
2018-09-25T12:52:13.434Z,42.40
2018-09-25T12:54:47.032Z,42.67
2018-09-25T12:57:20.626Z,43.28
2018-09-25T12:59:54.328Z,43.46
2018-09-25T13:02:27.828Z,43.42
2018-09-25T13:05:02.179Z,42.54
2018-09-25T13:07:35.959Z,42.34
2018-09-25T13:10:09.551Z,40.88
2018-09-25T13:12:42.955Z,40.39
2018-09-25T13:15:16.435Z,39.85
2018-09-25T13:17:49.947Z,40.54
2018-09-25T13:20:23.472Z,40.85
2018-09-25T13:22:57.008Z,39.97
2018-09-25T13:25:30.647Z,40.89
2018-09-25T13:28:04.050Z,38.50
2018-09-25T13:30:37.648Z,39.50
2018-09-25T13:33:11.347Z,41.08
2018-09-25T13:35:44.864Z,37.87
2018-09-25T13:38:18.259Z,37.42
2018-09-25T13:40:51.746Z,37.42
2018-09-25T13:43:25.301Z,36.09
2018-09-25T13:45:58.785Z,37.06
2018-09-25T13:48:32.398Z,37.72
2018-09-25T13:51:05.959Z,36.77
2018-09-25T13:53:39.299Z,38.19
2018-09-25T13:56:12.830Z,37.32
2018-09-25T13:58:46.176Z,38.00
2018-09-25T14:01:19.693Z,37.74
2018-09-25T14:03:53.233Z,36.58
2018-09-25T14:06:26.677Z,37.48
2018-09-25T14:09:00.146Z,37.20
2018-09-25T14:11:33.708Z,37.29
2018-09-25T14:14:07.263Z,37.62
2018-09-25T14:16:40.724Z,38.17
2018-09-25T14:19:14.299Z,36.91
2018-09-25T14:21:47.765Z,36.78
2018-09-25T14:24:21.302Z,37.20
2018-09-25T14:26:54.812Z,37.05
2018-09-25T14:29:28.243Z,37.25
2018-09-25T14:32:01.736Z,36.31
2018-09-25T14:34:35.297Z,37.45
2018-09-25T14:37:08.866Z,37.71
2018-09-25T14:39:42.286Z,37.61
2018-09-25T14:42:15.757Z,37.52
2018-09-25T14:44:49.227Z,37.66
2018-09-25T14:47:22.731Z,36.93
2018-09-25T14:49:56.322Z,36.30
2018-09-25T14:52:29.781Z,36.97
2018-09-25T14:55:03.324Z,38.11
2018-09-25T14:57:36.751Z,39.32
2018-09-25T15:00:10.631Z,37.87
2018-09-25T15:02:44.011Z,37.88
2018-09-25T15:05:17.447Z,37.97
2018-09-25T15:07:50.924Z,38.45
2018-09-25T15:10:24.492Z,37.71
2018-09-25T15:12:57.965Z,36.68
2018-09-25T15:15:31.583Z,38.45
2018-09-25T15:18:05.268Z,39.93
2018-09-25T15:20:38.895Z,39.38
2018-09-25T15:23:12.354Z,39.29
2018-09-25T15:25:45.908Z,38.62
2018-09-25T15:28:19.462Z,38.79
2018-09-25T15:30:53.044Z,40.23
2018-09-25T15:33:26.479Z,41.56
2018-09-25T15:35:59.980Z,38.82
2018-09-25T15:38:33.495Z,40.71
2018-09-25T15:41:07.049Z,40.98
2018-09-25T15:43:40.568Z,41.91
2018-09-25T15:46:13.994Z,42.71
2018-09-25T15:48:47.472Z,43.06
2018-09-25T15:51:20.913Z,44.09
2018-09-25T15:53:54.387Z,43.64
2018-09-25T15:56:27.956Z,42.57
2018-09-25T15:59:01.371Z,43.97
2018-09-25T16:01:34.864Z,44.13
2018-09-25T16:04:08.292Z,45.43
2018-09-25T16:06:41.867Z,45.11
2018-09-25T16:09:15.347Z,46.34
2018-09-25T16:11:48.897Z,47.12
2018-09-25T16:14:22.407Z,47.26
2018-09-25T16:16:56.076Z,46.97
2018-09-25T16:19:30.005Z,47.65
2018-09-25T16:22:04.225Z,47.52
2018-09-25T16:24:38.662Z,46.87
2018-09-25T16:27:12.253Z,47.80
2018-09-25T16:29:47.460Z,48.80
2018-09-25T16:32:21.610Z,48.70
2018-09-25T16:34:55.488Z,47.89
2018-09-25T16:37:29.015Z,46.53
2018-09-25T16:40:03.333Z,47.33
2018-09-25T16:42:36.957Z,47.43
2018-09-25T16:45:10.943Z,48.26
2018-09-25T16:47:44.540Z,48.16
2018-09-25T16:50:18.195Z,48.35
2018-09-25T16:52:52.325Z,48.40
2018-09-25T16:55:26.042Z,49.13
2018-09-25T16:58:00.609Z,49.24
2018-09-25T17:00:34.198Z,49.67
2018-09-25T17:03:07.954Z,49.73
2018-09-25T17:05:41.501Z,49.87
2018-09-25T17:08:15.056Z,49.37
2018-09-25T17:10:48.555Z,50.08
2018-09-25T17:13:22.343Z,50.37
2018-09-25T17:15:55.675Z,50.66
2018-09-25T17:18:29.246Z,51.08
2018-09-25T17:21:02.736Z,51.40
2018-09-25T17:23:36.182Z,51.99
2018-09-25T17:26:09.779Z,52.20
2018-09-25T17:28:43.576Z,52.53
2018-09-25T17:31:16.967Z,53.09
2018-09-25T17:33:50.443Z,53.74
2018-09-25T17:36:23.950Z,54.28
2018-09-25T17:38:57.412Z,54.76
2018-09-25T17:41:31.017Z,55.24
2018-09-25T17:44:04.399Z,55.46
2018-09-25T17:46:37.961Z,55.97
2018-09-25T17:49:11.835Z,56.27
2018-09-25T17:51:45.386Z,56.91
2018-09-25T17:54:18.843Z,57.13
2018-09-25T17:56:52.295Z,57.50
2018-09-25T17:59:25.756Z,57.46
2018-09-25T18:01:59.335Z,57.55
2018-09-25T18:04:32.940Z,58.30
2018-09-25T18:07:06.671Z,58.53
2018-09-25T18:09:41.076Z,58.74
2018-09-25T18:12:14.593Z,58.87
2018-09-25T18:14:49.152Z,59.13
2018-09-25T18:17:22.623Z,59.42
2018-09-25T18:19:56.294Z,59.48
2018-09-25T18:22:29.857Z,59.88
2018-09-25T18:25:03.374Z,59.94
2018-09-25T18:27:36.882Z,59.51
2018-09-25T18:30:10.460Z,57.51
2018-09-25T18:32:44.053Z,57.49
2018-09-25T18:35:17.659Z,57.68
2018-09-25T18:37:51.189Z,57.65
2018-09-25T18:40:24.849Z,57.30
2018-09-25T18:42:58.310Z,57.70
2018-09-25T18:45:31.820Z,57.22
2018-09-25T18:48:05.401Z,57.41
2018-09-25T18:50:39.085Z,57.53
2018-09-25T18:53:12.511Z,57.68
2018-09-25T18:55:46.108Z,57.65
2018-09-25T18:58:19.691Z,58.19
2018-09-25T19:00:54.023Z,58.19
2018-09-25T19:03:27.907Z,58.21
2018-09-25T19:06:01.910Z,58.54
2018-09-25T19:08:35.497Z,58.52
2018-09-25T19:11:09.158Z,58.76
2018-09-25T19:13:42.504Z,59.75
2018-09-25T19:16:15.979Z,60.13
2018-09-25T19:18:49.487Z,60.57
2018-09-25T19:21:23.035Z,60.24
2018-09-25T19:23:57.748Z,60.31
2018-09-25T19:26:31.271Z,61.13
2018-09-25T19:29:04.872Z,61.39
2018-09-25T19:31:38.512Z,61.64
2018-09-25T19:34:12.626Z,61.79
2018-09-25T19:36:47.120Z,61.32
2018-09-25T19:39:21.528Z,60.98
2018-09-25T19:41:55.241Z,61.56
2018-09-25T19:44:28.746Z,61.81
2018-09-25T19:47:02.228Z,62.21
2018-09-25T19:49:35.720Z,62.25
2018-09-25T19:52:09.258Z,62.59
2018-09-25T19:54:42.616Z,62.80
2018-09-25T19:57:16.567Z,62.71
2018-09-25T19:59:50.226Z,62.42
2018-09-25T20:02:24.379Z,62.20
2018-09-25T20:04:57.796Z,61.73
2018-09-25T20:07:31.367Z,62.34
2018-09-25T20:10:04.843Z,61.58
2018-09-25T20:12:38.837Z,61.28
2018-09-25T20:15:12.189Z,60.97
2018-09-25T20:17:45.675Z,61.65
2018-09-25T20:20:19.363Z,61.91
2018-09-25T20:22:52.844Z,62.34
2018-09-25T20:25:26.227Z,62.62
2018-09-25T20:27:59.746Z,62.97
2018-09-25T20:30:33.279Z,63.42
2018-09-25T20:33:06.820Z,63.90
2018-09-25T20:35:40.287Z,64.02
2018-09-25T20:38:13.737Z,63.58
2018-09-25T20:40:47.379Z,61.96
2018-09-25T20:43:21.037Z,62.03
2018-09-25T20:45:54.615Z,62.50
2018-09-25T20:48:28.148Z,62.75
2018-09-25T20:51:01.759Z,62.85
2018-09-25T20:53:35.312Z,63.05
2018-09-25T20:56:08.675Z,63.43
2018-09-25T20:58:43.191Z,63.71
2018-09-25T21:01:16.623Z,63.96
2018-09-25T21:03:50.094Z,63.76
2018-09-25T21:06:23.624Z,64.09
2018-09-25T21:08:57.143Z,64.46
2018-09-25T21:11:30.656Z,64.12
2018-09-25T21:14:04.182Z,64.20
2018-09-25T21:16:37.623Z,64.00
2018-09-25T21:19:11.157Z,63.83
2018-09-25T21:21:44.664Z,63.59
2018-09-25T21:24:18.080Z,63.42
2018-09-25T21:26:51.652Z,63.00
2018-09-25T21:29:24.991Z,63.05
2018-09-25T21:31:58.582Z,62.72
2018-09-25T21:34:32.002Z,62.22
2018-09-25T21:37:05.476Z,61.48
2018-09-25T21:39:39.064Z,60.39
2018-09-25T21:42:12.627Z,60.16
2018-09-25T21:44:46.160Z,60.14
2018-09-25T21:47:19.639Z,60.48
2018-09-25T21:49:53.114Z,61.00
2018-09-25T21:52:26.647Z,60.45
2018-09-25T21:55:00.075Z,60.06
2018-09-25T21:57:33.760Z,60.69
2018-09-25T22:00:07.052Z,61.50
2018-09-25T22:02:40.498Z,61.31
2018-09-25T22:05:13.953Z,61.56
2018-09-25T22:07:47.494Z,62.20
2018-09-25T22:10:21.031Z,62.82
2018-09-25T22:12:54.443Z,63.07
2018-09-25T22:15:27.960Z,62.63
2018-09-25T22:18:01.582Z,61.33
2018-09-25T22:20:34.871Z,61.65
2018-09-25T22:23:08.337Z,62.27
2018-09-25T22:25:41.768Z,62.38
2018-09-25T22:28:15.287Z,62.71
2018-09-25T22:30:48.580Z,62.65
2018-09-25T22:33:22.052Z,62.64
2018-09-25T22:35:55.507Z,62.51
2018-09-25T22:38:29.076Z,62.39
2018-09-25T22:41:02.491Z,62.44
2018-09-25T22:43:36.100Z,62.43
2018-09-25T22:46:09.579Z,62.32
2018-09-25T22:48:43.195Z,62.30
2018-09-25T22:51:16.571Z,62.20
2018-09-25T22:53:50.198Z,62.41
2018-09-25T22:56:23.676Z,62.43
2018-09-25T22:58:57.152Z,62.42
2018-09-25T23:01:30.487Z,62.73
2018-09-25T23:04:04.047Z,63.33
2018-09-25T23:06:37.533Z,63.67
2018-09-25T23:09:13.550Z,63.96
2018-09-25T23:11:47.512Z,64.09
2018-09-25T23:14:21.047Z,63.73
2018-09-25T23:16:54.583Z,63.33
2018-09-25T23:19:28.002Z,63.52
2018-09-25T23:22:01.455Z,63.47
2018-09-25T23:24:34.940Z,63.57
2018-09-25T23:27:08.368Z,63.76
2018-09-25T23:29:41.875Z,63.81
2018-09-25T23:32:15.452Z,63.56
2018-09-25T23:34:48.932Z,63.27
2018-09-25T23:37:22.530Z,63.40
2018-09-25T23:40:26.016Z,63.61
2018-09-25T23:43:01.297Z,63.51
2018-09-25T23:45:34.491Z,63.64
2018-09-25T23:48:09.752Z,63.37
2018-09-25T23:50:43.188Z,63.56
2018-09-25T23:53:21.612Z,63.65
2018-09-25T23:55:57.721Z,63.73
2018-09-25T23:58:30.310Z,62.96
